Time;durP1;ratioP1;P1;durP2;ratioP2;P2;SDS_P1;SDS_P2;PMS_P1;PMS_P2;Temp;Humidity;BMP_temperature;BMP_pressure;BME280_temperature;BME280_humidity;BME280_pressure;Samples;Min_cycle;Max_cycle;Signal;HPM_P1;HPM_P2
2021/12/03 00:00:25;;;;;;;31.63;3.83;;;14.30;99.90;;;;;;5093935;28;20039;-73
2021/12/03 00:02:51;;;;;;;54.42;5.82;;;14.30;99.90;;;;;;5092453;28;20293;-73
2021/12/03 00:05:17;;;;;;;41.15;4.63;;;14.20;99.90;;;;;;5093662;28;20039;-73
2021/12/03 00:07:43;;;;;;;43.97;5.40;;;14.20;99.90;;;;;;5092283;28;20419;-73
2021/12/03 00:10:13;;;;;;;46.20;4.55;;;14.20;99.90;;;;;;5093973;28;20372;-73
2021/12/03 00:12:41;;;;;;;34.72;4.70;;;14.20;99.90;;;;;;5094053;28;20020;-73
2021/12/03 00:15:10;;;;;;;40.25;5.05;;;14.20;99.90;;;;;;5093623;28;20016;-72
2021/12/03 00:17:38;;;;;;;37.90;4.68;;;14.20;99.90;;;;;;5093451;28;20036;-74
2021/12/03 00:20:07;;;;;;;48.42;4.28;;;14.20;99.90;;;;;;5093574;28;20020;-72
2021/12/03 00:22:33;;;;;;;42.75;4.72;;;14.20;99.90;;;;;;5093638;28;20037;-73
2021/12/03 00:24:59;;;;;;;37.25;4.13;;;14.30;99.90;;;;;;5092746;28;20028;-72
2021/12/03 00:27:25;;;;;;;32.05;4.45;;;14.30;99.90;;;;;;5093534;28;20024;-73
2021/12/03 00:29:51;;;;;;;48.83;5.75;;;14.30;99.90;;;;;;5093745;28;20077;-72
2021/12/03 00:32:18;;;;;;;53.17;5.30;;;14.30;99.90;;;;;;5093642;28;20523;-73
2021/12/03 00:34:44;;;;;;;;;;;14.30;99.90;;;;;;5093404;28;20077;-72
2021/12/03 00:37:11;;;;;;;52.15;4.68;;;14.30;99.90;;;;;;5093301;28;20050;-73
2021/12/03 00:39:38;;;;;;;47.53;4.65;;;14.20;99.90;;;;;;5092855;28;20077;-73
2021/12/03 00:42:05;;;;;;;57.15;5.97;;;14.30;99.90;;;;;;5093083;28;20024;-73
2021/12/03 00:44:32;;;;;;;45.97;4.47;;;14.30;99.90;;;;;;5091424;28;20054;-75
2021/12/03 00:46:59;;;;;;;51.72;4.78;;;14.20;99.90;;;;;;5092894;28;20169;-73
2021/12/03 00:49:27;;;;;;;51.88;5.10;;;14.20;99.90;;;;;;5093053;28;20070;-73
2021/12/03 00:51:53;;;;;;;42.65;4.05;;;14.10;99.90;;;;;;5092815;28;20107;-73
2021/12/03 00:54:19;;;;;;;56.40;5.55;;;14.10;99.90;;;;;;5092779;28;20159;-73
2021/12/03 00:56:45;;;;;;;48.40;4.75;;;14.20;99.90;;;;;;5092753;28;20439;-73
2021/12/03 00:59:12;;;;;;;57.57;4.83;;;14.20;99.90;;;;;;5092822;28;20020;-73
2021/12/03 01:01:38;;;;;;;49.42;4.45;;;14.10;99.90;;;;;;5093112;28;20179;-73
2021/12/03 01:04:05;;;;;;;46.58;4.72;;;14.20;99.90;;;;;;5092641;28;20142;-73
2021/12/03 01:06:31;;;;;;;42.88;4.70;;;14.30;99.90;;;;;;5092764;28;20535;-73
2021/12/03 01:08:58;;;;;;;45.03;4.13;;;14.40;99.90;;;;;;5093181;28;20119;-73
2021/12/03 01:11:26;;;;;;;37.40;5.30;;;14.50;99.90;;;;;;5092526;28;20074;-73
2021/12/03 01:13:57;;;;;;;49.15;5.45;;;14.40;99.90;;;;;;5092547;28;20024;-73
2021/12/03 01:16:23;;;;;;;48.17;4.65;;;14.40;99.90;;;;;;5092956;28;20066;-73
2021/12/03 01:18:49;;;;;;;38.38;4.82;;;14.40;99.90;;;;;;5092601;28;20464;-73
2021/12/03 01:21:15;;;;;;;44.70;4.50;;;14.40;99.90;;;;;;5092381;28;20049;-73
2021/12/03 01:23:41;;;;;;;36.50;4.20;;;14.40;99.90;;;;;;5092409;28;20077;-72
2021/12/03 01:26:12;;;;;;;44.13;4.80;;;14.40;99.90;;;;;;5092385;28;20297;-72
2021/12/03 01:28:40;;;;;;;46.97;4.22;;;14.40;99.90;;;;;;5092642;28;20020;-72
2021/12/03 01:31:07;;;;;;;50.95;4.63;;;14.40;99.90;;;;;;5092213;28;20417;-73
2021/12/03 01:33:34;;;;;;;48.50;4.60;;;14.30;99.90;;;;;;5092346;28;20028;-72
2021/12/03 01:36:01;;;;;;;35.25;4.20;;;14.20;99.90;;;;;;5090326;28;20048;-72
2021/12/03 01:38:27;;;;;;;43.13;4.40;;;14.30;99.90;;;;;;5092008;28;20091;-72
2021/12/03 01:40:53;;;;;;;45.67;5.87;;;14.30;99.90;;;;;;5092183;28;20206;-72
2021/12/03 01:43:26;;;;;;;41.05;4.32;;;14.20;99.90;;;;;;5091902;28;20257;-72
2021/12/03 01:45:56;;;;;;;39.97;4.38;;;14.20;99.90;;;;;;5092206;28;20460;-72
2021/12/03 01:48:23;;;;;;;41.22;4.07;;;14.20;99.90;;;;;;5092085;28;20032;-72
2021/12/03 01:50:50;;;;;;;33.58;3.88;;;14.20;99.90;;;;;;5092071;28;20164;-73
2021/12/03 01:53:23;;;;;;;40.03;4.32;;;14.20;99.90;;;;;;5091853;28;20028;-72
2021/12/03 01:55:54;;;;;;;43.50;4.00;;;14.20;99.90;;;;;;5092342;28;20031;-73
2021/12/03 01:58:22;;;;;;;36.47;3.80;;;14.20;99.90;;;;;;5092079;28;20020;-72
2021/12/03 02:00:55;;;;;;;42.50;4.82;;;14.20;99.90;;;;;;5092008;28;20024;-73
2021/12/03 02:03:23;;;;;;;40.60;4.53;;;14.20;99.90;;;;;;5092129;28;20016;-72
2021/12/03 02:05:50;;;;;;;46.55;5.03;;;14.10;99.90;;;;;;5091661;28;20118;-73
2021/12/03 02:08:16;;;;;;;40.35;4.60;;;14.10;99.90;;;;;;5091425;28;20111;-73
2021/12/03 02:10:43;;;;;;;54.65;5.35;;;14.00;99.90;;;;;;5091745;28;20024;-73
2021/12/03 02:13:11;;;;;;;53.80;4.45;;;13.90;99.90;;;;;;5091922;28;20068;-73
2021/12/03 02:15:38;;;;;;;47.08;4.38;;;13.90;99.90;;;;;;5091534;28;20468;-73
2021/12/03 02:18:04;;;;;;;;;;;13.90;99.90;;;;;;5092053;28;20035;-73
2021/12/03 02:20:32;;;;;;;42.08;4.18;;;13.90;99.90;;;;;;5091547;28;20333;-73
2021/12/03 02:22:58;;;;;;;38.92;4.53;;;13.90;99.90;;;;;;5091752;28;20068;-73
2021/12/03 02:25:26;;;;;;;41.47;4.10;;;13.80;99.90;;;;;;5091636;28;20020;-74
2021/12/03 02:27:55;;;;;;;35.75;4.10;;;13.80;99.90;;;;;;5091455;28;20108;-73
2021/12/03 02:30:22;;;;;;;64.22;5.82;;;13.80;99.90;;;;;;5091484;28;20028;-73
2021/12/03 02:32:50;;;;;;;41.17;5.95;;;13.80;99.90;;;;;;5091954;28;20035;-73
2021/12/03 02:35:17;;;;;;;43.08;3.97;;;13.80;99.90;;;;;;5091155;28;20048;-73
2021/12/03 02:37:43;;;;;;;46.10;6.20;;;13.80;99.90;;;;;;5091370;28;20074;-73
2021/12/03 02:40:11;;;;;;;58.73;5.17;;;13.80;99.90;;;;;;5091679;28;20435;-73
2021/12/03 02:42:38;;;;;;;40.92;5.43;;;13.80;99.90;;;;;;5091804;28;20173;-73
2021/12/03 02:45:07;;;;;;;40.25;4.25;;;13.80;99.90;;;;;;5091355;28;20063;-73
2021/12/03 02:47:34;;;;;;;43.05;5.07;;;13.80;99.90;;;;;;5091288;28;20024;-73
2021/12/03 02:50:01;;;;;;;34.25;4.22;;;13.80;99.90;;;;;;5095619;28;20046;-73
2021/12/03 02:52:27;;;;;;;47.65;4.82;;;13.80;99.90;;;;;;5095300;28;20069;-71
2021/12/03 02:54:53;;;;;;;44.67;4.57;;;13.80;99.90;;;;;;5093645;28;20024;-74
2021/12/03 02:57:19;;;;;;;49.42;5.10;;;13.80;99.90;;;;;;5095245;28;20135;-74
2021/12/03 02:59:45;;;;;;;48.00;4.83;;;13.80;99.90;;;;;;5095003;28;20436;-72
2021/12/03 03:02:11;;;;;;;46.90;4.75;;;13.90;99.90;;;;;;5094827;28;20254;-72
2021/12/03 03:04:37;;;;;;;50.40;3.60;;;13.90;99.90;;;;;;5094914;28;20111;-72
2021/12/03 03:07:04;;;;;;;46.43;4.80;;;13.80;99.90;;;;;;5093367;28;20032;-72
2021/12/03 03:09:31;;;;;;;44.92;6.63;;;13.80;99.90;;;;;;5095193;28;20311;-72
2021/12/03 03:11:58;;;;;;;50.30;4.90;;;13.80;99.90;;;;;;5094981;28;20051;-72
2021/12/03 03:14:25;;;;;;;40.53;4.00;;;13.80;99.90;;;;;;5093317;28;20500;-73
2021/12/03 03:16:52;;;;;;;40.50;5.22;;;13.90;99.90;;;;;;5094779;28;20024;-72
2021/12/03 03:19:23;;;;;;;48.45;5.53;;;13.80;99.90;;;;;;5094733;28;20059;-73
2021/12/03 03:21:50;;;;;;;46.97;6.32;;;13.90;99.90;;;;;;5095040;28;20060;-73
2021/12/03 03:24:18;;;;;;;35.10;3.78;;;13.90;99.90;;;;;;5093292;28;20388;-74
2021/12/03 03:26:46;;;;;;;43.13;4.78;;;13.90;99.90;;;;;;5094507;28;20036;-74
2021/12/03 03:29:16;;;;;;;55.45;4.65;;;13.90;99.90;;;;;;5093211;28;20413;-73
2021/12/03 03:31:45;;;;;;;44.30;4.65;;;13.90;99.90;;;;;;5093323;28;20077;-73
2021/12/03 03:34:12;;;;;;;37.78;4.00;;;13.90;99.90;;;;;;5094447;28;20028;-73
2021/12/03 03:36:42;;;;;;;50.45;5.28;;;13.90;99.90;;;;;;5094360;28;20206;-73
2021/12/03 03:39:11;;;;;;;42.03;4.50;;;13.90;99.90;;;;;;5094495;28;20028;-73
2021/12/03 03:41:38;;;;;;;39.63;4.38;;;13.80;99.90;;;;;;5094424;28;20042;-73
2021/12/03 03:44:04;;;;;;;48.15;4.35;;;13.90;99.90;;;;;;5093275;28;20063;-73
2021/12/03 03:46:33;;;;;;;29.10;3.63;;;13.80;99.90;;;;;;5094363;28;20055;-73
2021/12/03 03:49:02;;;;;;;40.65;4.57;;;13.90;99.90;;;;;;5094344;28;20405;-73
2021/12/03 03:51:30;;;;;;;41.90;4.25;;;13.90;99.90;;;;;;5094062;28;20419;-73
2021/12/03 03:53:56;;;;;;;42.08;4.28;;;13.90;99.90;;;;;;5092737;28;20028;-74
2021/12/03 03:56:22;;;;;;;36.35;4.47;;;13.90;99.90;;;;;;5094769;28;20035;-73
2021/12/03 03:58:48;;;;;;;42.63;4.10;;;13.90;99.90;;;;;;5094338;28;20027;-73
2021/12/03 04:01:15;;;;;;;45.07;5.00;;;13.90;99.90;;;;;;5094431;28;20020;-73
2021/12/03 04:03:46;;;;;;;36.72;4.35;;;13.90;99.90;;;;;;5092790;28;20032;-72
2021/12/03 04:06:14;;;;;;;31.25;3.75;;;13.80;99.90;;;;;;5094281;28;20036;-72
2021/12/03 04:08:40;;;;;;;39.05;4.57;;;13.90;99.90;;;;;;5095184;28;20074;-72
2021/12/03 04:11:06;;;;;;;39.38;3.95;;;13.80;99.90;;;;;;5094687;28;20047;-72
2021/12/03 04:13:32;;;;;;;35.63;4.70;;;13.90;99.90;;;;;;5094957;28;20105;-72
2021/12/03 04:15:58;;;;;;;43.60;5.07;;;13.90;99.90;;;;;;5094395;28;20027;-72
2021/12/03 04:18:24;;;;;;;47.13;4.57;;;13.80;99.90;;;;;;5094399;28;20675;-72
2021/12/03 04:20:50;;;;;;;39.40;3.83;;;13.90;99.90;;;;;;5094566;28;20387;-72
2021/12/03 04:23:19;;;;;;;33.63;3.95;;;13.80;99.90;;;;;;5093163;28;20358;-72
2021/12/03 04:25:48;;;;;;;45.90;4.55;;;13.80;99.90;;;;;;5094597;28;20321;-72
2021/12/03 04:28:18;;;;;;;36.78;5.38;;;13.90;99.90;;;;;;5094567;28;20056;-72
2021/12/03 04:30:48;;;;;;;40.40;4.95;;;13.80;99.90;;;;;;5094481;28;20024;-74
2021/12/03 04:33:22;;;;;;;33.88;3.85;;;13.80;99.90;;;;;;5093107;28;20386;-73
2021/12/03 04:35:52;;;;;;;49.90;5.18;;;13.80;99.90;;;;;;5092594;28;20123;-72
2021/12/03 04:38:19;;;;;;;44.20;5.38;;;13.80;99.90;;;;;;5094610;28;20024;-72
2021/12/03 04:40:48;;;;;;;34.80;4.38;;;13.80;99.90;;;;;;5094770;28;20360;-72
2021/12/03 04:43:15;;;;;;;47.17;5.25;;;13.80;99.90;;;;;;5094463;28;20028;-72
2021/12/03 04:45:41;;;;;;;;;;;13.80;99.90;;;;;;5093221;28;20110;-72
2021/12/03 04:48:07;;;;;;;38.15;5.68;;;13.90;99.90;;;;;;5094176;28;20045;-72
2021/12/03 04:50:40;;;;;;;43.80;4.47;;;13.90;99.90;;;;;;5094081;28;20032;-72
2021/12/03 04:53:08;;;;;;;36.40;3.90;;;13.90;99.90;;;;;;5094209;28;20023;-72
2021/12/03 04:55:36;;;;;;;37.85;5.32;;;13.90;99.90;;;;;;5094241;28;20042;-72
2021/12/03 04:58:04;;;;;;;40.65;4.30;;;13.90;99.90;;;;;;5094775;28;20024;-73
2021/12/03 05:00:43;;;;;;;42.28;4.20;;;13.80;99.90;;;;;;5092650;28;20039;-72
2021/12/03 05:03:09;;;;;;;50.63;4.90;;;13.90;99.90;;;;;;5094335;28;20434;-72
2021/12/03 05:05:37;;;;;;;27.67;3.97;;;13.90;99.90;;;;;;5094150;28;20054;-73
2021/12/03 05:08:07;;;;;;;34.90;4.25;;;13.90;99.90;;;;;;5094228;28;20028;-72
2021/12/03 05:10:38;;;;;;;44.38;5.07;;;13.90;99.90;;;;;;5093573;28;20338;-72
2021/12/03 05:13:07;;;;;;;45.45;4.07;;;13.90;99.90;;;;;;5093508;28;20031;-72
2021/12/03 05:15:36;;;;;;;39.83;4.72;;;13.90;99.90;;;;;;5093477;28;20036;-73
2021/12/03 05:18:03;;;;;;;42.95;4.22;;;13.90;99.90;;;;;;5094144;28;20024;-72
2021/12/03 05:20:29;;;;;;;49.88;4.10;;;13.90;99.90;;;;;;5092321;28;20373;-72
2021/12/03 05:22:57;;;;;;;39.20;3.78;;;13.90;99.90;;;;;;5093608;28;20043;-72
2021/12/03 05:25:23;;;;;;;36.30;3.40;;;13.90;99.90;;;;;;5092017;28;20043;-72
2021/12/03 05:27:52;;;;;;;42.30;4.22;;;13.90;99.90;;;;;;5093457;28;20052;-72
2021/12/03 05:30:19;;;;;;;38.15;4.78;;;14.00;99.90;;;;;;5093833;28;20090;-72
2021/12/03 05:32:46;;;;;;;42.58;4.47;;;14.00;99.90;;;;;;5092186;28;20024;-72
2021/12/03 05:35:13;;;;;;;29.95;3.75;;;14.00;99.90;;;;;;5091855;28;20087;-72
2021/12/03 05:37:39;;;;;;;45.92;5.13;;;14.00;99.90;;;;;;5092004;28;20040;-72
2021/12/03 05:40:09;;;;;;;34.30;4.65;;;14.10;99.90;;;;;;5093421;28;20073;-71
2021/12/03 05:42:37;;;;;;;40.50;5.18;;;14.00;99.90;;;;;;5093275;28;20055;-71
2021/12/03 05:45:05;;;;;;;32.97;4.32;;;14.10;99.90;;;;;;5093140;28;20025;-71
2021/12/03 05:47:31;;;;;;;30.70;4.03;;;14.10;99.90;;;;;;5093221;28;20106;-72
2021/12/03 05:49:57;;;;;;;27.95;3.17;;;14.00;99.90;;;;;;5093799;28;20024;-71
2021/12/03 05:52:23;;;;;;;21.37;2.93;;;14.00;99.90;;;;;;5092356;28;20119;-72
2021/12/03 05:54:49;;;;;;;20.17;2.70;;;14.00;99.90;;;;;;5093275;28;20020;-72
2021/12/03 05:57:15;;;;;;;23.25;2.88;;;14.00;99.90;;;;;;5093255;28;20476;-72
2021/12/03 05:59:43;;;;;;;19.07;2.63;;;13.90;99.90;;;;;;5093221;28;20024;-74
2021/12/03 06:02:10;;;;;;;12.90;2.13;;;13.90;99.90;;;;;;5093657;28;20085;-72
2021/12/03 06:04:36;;;;;;;14.98;2.30;;;13.90;99.90;;;;;;5092066;28;20060;-72
2021/12/03 06:07:04;;;;;;;16.33;2.85;;;13.90;99.90;;;;;;5093081;28;20044;-72
2021/12/03 06:09:32;;;;;;;8.73;2.40;;;13.80;99.90;;;;;;5092335;28;20107;-72
2021/12/03 06:12:01;;;;;;;11.50;2.40;;;13.80;99.90;;;;;;5092510;28;20119;-72
2021/12/03 06:14:28;;;;;;;17.48;2.33;;;13.80;99.90;;;;;;5092140;28;20498;-70
2021/12/03 06:16:54;;;;;;;19.00;3.00;;;13.80;99.90;;;;;;5093297;28;20119;-72
2021/12/03 06:19:20;;;;;;;15.98;2.88;;;13.80;99.90;;;;;;5093170;28;20028;-72
2021/12/03 06:21:47;;;;;;;15.65;2.53;;;13.80;99.90;;;;;;5093040;28;20020;-73
2021/12/03 06:24:13;;;;;;;13.50;2.78;;;13.80;99.90;;;;;;5096077;28;20382;-73
2021/12/03 06:26:39;;;;;;;10.73;2.10;;;13.80;99.90;;;;;;5097299;28;20127;-72
2021/12/03 06:29:05;;;;;;;10.07;2.40;;;13.70;99.90;;;;;;5097385;28;20024;-72
2021/12/03 06:31:35;;;;;;;15.70;2.57;;;13.70;99.90;;;;;;5096798;28;20024;-72
2021/12/03 06:34:01;;;;;;;12.98;2.53;;;13.60;99.90;;;;;;5096068;28;20061;-71
2021/12/03 06:36:27;;;;;;;15.70;2.90;;;13.60;99.90;;;;;;5095601;28;20242;-70
2021/12/03 06:38:53;;;;;;;10.13;2.35;;;13.60;99.90;;;;;;5096092;28;20020;-72
2021/12/03 06:41:20;;;;;;;8.30;1.80;;;13.60;99.90;;;;;;5096007;28;20117;-72
2021/12/03 06:43:46;;;;;;;8.48;1.90;;;13.60;99.90;;;;;;5095884;28;20025;-71
2021/12/03 06:46:12;;;;;;;8.33;2.07;;;13.70;99.90;;;;;;5094870;28;20056;-71
2021/12/03 06:48:38;;;;;;;13.20;2.20;;;13.70;99.90;;;;;;5095455;28;20275;-70
2021/12/03 06:51:04;;;;;;;11.30;2.08;;;13.70;99.90;;;;;;5095716;28;20258;-72
2021/12/03 06:53:41;;;;;;;11.77;2.00;;;13.70;99.90;;;;;;5093420;28;20429;-71
2021/12/03 06:56:19;;;;;;;11.80;1.98;;;13.70;99.90;;;;;;5095072;28;20042;-71
2021/12/03 06:58:45;;;;;;;12.57;1.80;;;13.70;99.90;;;;;;5093433;28;20020;-73
2021/12/03 07:01:12;;;;;;;14.05;1.85;;;13.70;99.90;;;;;;5094643;28;20194;-73
2021/12/03 07:03:38;;;;;;;11.82;2.33;;;13.60;99.90;;;;;;5095159;28;20020;-71
2021/12/03 07:06:04;;;;;;;7.35;2.03;;;13.60;99.90;;;;;;5092930;28;20052;-72
2021/12/03 07:08:30;;;;;;;15.30;2.03;;;13.60;99.90;;;;;;5094656;28;20027;-72
2021/12/03 07:10:56;;;;;;;7.80;1.73;;;13.60;99.90;;;;;;5094601;28;20035;-72
2021/12/03 07:13:22;;;;;;;12.47;1.90;;;13.50;99.90;;;;;;5095091;28;20016;-72
2021/12/03 07:15:48;;;;;;;12.55;2.08;;;13.60;99.90;;;;;;5094589;28;20262;-72
2021/12/03 07:18:14;;;;;;;9.35;2.20;;;13.50;99.90;;;;;;5094608;28;20028;-72
2021/12/03 07:20:40;;;;;;;12.87;2.57;;;13.50;99.90;;;;;;5095195;28;20028;-72
2021/12/03 07:23:07;;;;;;;12.57;2.17;;;13.60;99.90;;;;;;5093764;28;20016;-70
2021/12/03 07:25:33;;;;;;;11.33;2.20;;;13.60;99.90;;;;;;5094973;28;20028;-71
2021/12/03 07:27:59;;;;;;;15.20;1.97;;;13.60;99.90;;;;;;5095584;28;20016;-70
2021/12/03 07:30:30;;;;;;;9.73;2.03;;;13.60;99.90;;;;;;5077035;28;20032;-70
2021/12/03 07:32:57;;;;;;;8.48;1.58;;;13.60;99.90;;;;;;5095157;28;20206;-71
2021/12/03 07:35:25;;;;;;;12.93;1.60;;;13.60;99.90;;;;;;5093808;28;20055;-69
2021/12/03 07:37:52;;;;;;;13.07;1.58;;;13.60;99.90;;;;;;5093811;28;20028;-70
2021/12/03 07:40:18;;;;;;;9.32;1.40;;;13.60;99.90;;;;;;5094502;28;20340;-70
2021/12/03 07:42:45;;;;;;;10.18;1.85;;;13.60;99.90;;;;;;5093575;28;20494;-71
2021/12/03 07:45:14;;;;;;;13.13;2.00;;;13.60;99.90;;;;;;5094495;28;20028;-70
2021/12/03 07:47:41;;;;;;;7.78;1.60;;;13.60;99.90;;;;;;5094374;28;20534;-69
2021/12/03 07:50:10;;;;;;;24.75;2.47;;;13.70;99.90;;;;;;5094313;28;20024;-71
2021/12/03 07:52:37;;;;;;;11.82;1.90;;;13.70;99.90;;;;;;5092229;28;20040;-69
2021/12/03 07:55:04;;;;;;;9.88;2.30;;;13.80;99.90;;;;;;5093836;28;20031;-69
2021/12/03 07:57:30;;;;;;;10.95;1.65;;;13.80;99.90;;;;;;5093965;28;20027;-70
2021/12/03 07:59:56;;;;;;;7.43;1.50;;;13.70;99.90;;;;;;5093610;28;20141;-70
2021/12/03 08:02:23;;;;;;;14.18;2.83;;;13.70;99.90;;;;;;5093754;28;20258;-71
2021/12/03 08:04:49;;;;;;;10.05;1.65;;;13.80;99.90;;;;;;5091944;28;20066;-70
2021/12/03 08:07:15;;;;;;;11.38;1.90;;;13.80;99.90;;;;;;5093699;28;20459;-69
2021/12/03 08:09:42;;;;;;;10.13;1.55;;;13.80;99.90;;;;;;5093758;28;20024;-72
2021/12/03 08:12:08;;;;;;;8.80;1.55;;;13.90;99.90;;;;;;5093789;28;20406;-68
2021/12/03 08:14:34;;;;;;;13.60;1.90;;;13.90;99.90;;;;;;5093571;28;20023;-70
2021/12/03 08:17:00;;;;;;;14.93;4.25;;;14.00;99.90;;;;;;5093260;28;20485;-68
2021/12/03 08:19:27;;;;;;;12.85;2.03;;;14.00;99.90;;;;;;5093363;28;20038;-69
2021/12/03 08:21:53;;;;;;;10.77;1.63;;;14.00;99.90;;;;;;5093312;28;20031;-69
2021/12/03 08:24:19;;;;;;;6.85;1.40;;;14.10;99.90;;;;;;5094020;28;20032;-70
2021/12/03 08:26:45;;;;;;;12.63;1.73;;;14.20;99.90;;;;;;5093216;28;20478;-68
2021/12/03 08:29:11;;;;;;;11.20;2.50;;;14.30;99.90;;;;;;5093315;28;20019;-69
2021/12/03 08:31:39;;;;;;;9.32;1.70;;;14.50;99.90;;;;;;5093492;28;20028;-70
2021/12/03 08:34:06;;;;;;;3.90;1.20;;;14.50;99.90;;;;;;5091503;28;20028;-69
2021/12/03 08:36:32;;;;;;;6.13;1.70;;;14.60;99.90;;;;;;5038183;28;1572167;-68
2021/12/03 08:38:58;;;;;;;8.38;1.80;;;14.70;99.90;;;;;;5094181;28;20036;-69
2021/12/03 08:41:24;;;;;;;9.77;1.87;;;14.80;99.90;;;;;;5093816;28;20024;-68
2021/12/03 08:43:50;;;;;;;11.97;2.40;;;14.80;99.90;;;;;;5092213;28;20254;-68
2021/12/03 08:46:28;;;;;;;6.78;1.40;;;14.80;99.90;;;;;;5092726;28;20629;-68
2021/12/03 08:49:06;;;;;;;8.93;1.40;;;14.70;99.90;;;;;;5093408;28;20012;-69
2021/12/03 08:51:46;;;;;;;12.23;3.83;;;14.60;99.90;;;;;;5092037;28;20032;-68
2021/12/03 08:56:57;;;;;;;8.73;1.52;;;14.50;99.90;;;;;;5093469;28;20476;-68
2021/12/03 08:59:24;;;;;;;12.85;2.65;;;14.40;99.90;;;;;;5093493;28;20020;-68
2021/12/03 09:01:50;;;;;;;10.30;1.80;;;14.30;99.90;;;;;;5091576;28;20032;-68
2021/12/03 09:04:16;;;;;;;14.70;2.00;;;14.40;99.90;;;;;;5091312;28;20024;-69
2021/12/03 09:06:43;;;;;;;6.63;1.90;;;14.40;99.90;;;;;;5092675;28;20071;-68
2021/12/03 09:09:09;;;;;;;12.20;2.03;;;14.50;99.90;;;;;;5092544;28;20356;-68
2021/12/03 09:11:37;;;;;;;7.88;2.10;;;14.60;99.90;;;;;;5093308;28;20293;-69
2021/12/03 09:14:20;;;;;;;7.05;2.22;;;14.60;99.90;;;;;;5092610;28;20028;-69
2021/12/03 09:16:52;;;;;;;14.10;3.35;;;14.70;99.90;;;;;;5092896;28;20043;-69
2021/12/03 09:19:25;;;;;;;12.10;5.00;;;14.80;99.90;;;;;;5092584;28;20063;-68
2021/12/03 09:21:51;;;;;;;26.92;12.90;;;15.00;99.90;;;;;;5093017;28;20044;-68
2021/12/03 09:24:19;;;;;;;26.58;11.68;;;15.20;99.90;;;;;;5091238;28;20252;-70
2021/12/03 09:26:46;;;;;;;19.95;8.35;;;15.40;99.90;;;;;;5092839;28;20114;-70
2021/12/03 09:29:15;;;;;;;13.65;4.80;;;15.60;99.90;;;;;;5092857;28;20113;-69
2021/12/03 09:31:43;;;;;;;12.57;5.28;;;15.50;99.90;;;;;;5092794;28;20543;-68
2021/12/03 09:34:13;;;;;;;12.02;5.05;;;15.60;99.90;;;;;;5093229;28;20027;-69
2021/12/03 09:36:42;;;;;;;12.23;4.00;;;15.70;99.90;;;;;;5092646;28;20452;-69
2021/12/03 09:39:15;;;;;;;8.70;3.25;;;15.70;99.90;;;;;;5091325;28;20039;-69
2021/12/03 09:41:41;;;;;;;10.18;4.10;;;15.70;99.90;;;;;;5092958;28;20016;-69
2021/12/03 09:44:07;;;;;;;14.20;5.75;;;15.60;99.90;;;;;;5092504;28;20027;-69
2021/12/03 09:46:33;;;;;;;9.43;3.73;;;15.50;99.90;;;;;;5092529;28;20034;-68
2021/12/03 09:51:39;;;;;;;17.13;2.72;;;15.40;99.90;;;;;;5092160;28;20319;-68
2021/12/03 09:56:53;;;;;;;7.68;2.25;;;15.30;99.90;;;;;;5092115;28;20542;-68
2021/12/03 10:13:07;;;;;;;9.55;3.85;;;15.50;99.90;;;;;;5092210;28;19908;-69
2021/12/03 10:15:36;;;;;;;7.20;1.90;;;15.40;99.90;;;;;;5091709;28;20032;-67
2021/12/03 10:18:40;;;;;;;5.22;1.00;;;14.80;99.90;;;;;;5092108;28;20031;-69
2021/12/03 10:21:03;;;;;;;4.80;1.13;;;14.70;99.90;;;;;;5089791;28;20074;-70
2021/12/03 10:29:14;;;;;;;5.70;1.10;;;14.70;99.90;;;;;;5092007;28;20024;-70
2021/12/03 10:32:24;;;;;;;8.18;1.92;;;14.80;99.90;;;;;;5092082;28;20444;-69
2021/12/03 10:38:12;;;;;;;5.55;1.23;;;15.00;99.90;;;;;;5092471;28;20392;-68
2021/12/03 10:45:59;;;;;;;3.47;0.85;;;15.00;99.90;;;;;;5092072;28;20028;-69
2021/12/03 10:48:40;;;;;;;6.15;1.35;;;15.00;99.90;;;;;;5090685;28;20092;-68
2021/12/03 10:54:01;;;;;;;4.97;0.93;;;14.60;99.90;;;;;;5091786;28;20036;-69
2021/12/03 10:56:48;;;;;;;3.47;1.00;;;14.50;99.90;;;;;;5092252;28;20047;-69
2021/12/03 11:07:20;;;;;;;3.42;0.93;;;14.60;99.90;;;;;;5091523;28;20082;-69
2021/12/03 11:27:05;;;;;;;5.03;1.33;;;14.40;99.90;;;;;;5095060;28;20233;-67
2021/12/03 12:23:16;;;;;;;5.82;2.33;;;13.20;99.90;;;;;;5092583;28;20128;-67
2021/12/03 12:32:23;;;;;;;6.13;2.50;;;13.00;99.90;;;;;;5094225;28;20122;-68
2021/12/03 12:40:37;;;;;;;3.08;1.70;;;13.50;99.90;;;;;;5051299;28;20036;-69
2021/12/03 13:03:10;;;;;;;4.25;1.85;;;13.60;99.90;;;;;;5093197;28;20027;-69
2021/12/03 13:10:36;;;;;;;5.82;3.03;;;13.60;99.90;;;;;;5093802;28;20031;-69
2021/12/03 13:32:56;;;;;;;2.97;0.55;;;13.00;99.90;;;;;;5093610;28;20157;-69
2021/12/03 14:38:41;;;;;;;2.95;0.95;;;11.90;99.90;;;;;;5093504;28;20031;-68
2021/12/03 14:46:54;;;;;;;1.23;0.43;;;11.70;99.90;;;;;;5096829;28;20093;-68
2021/12/03 14:49:35;;;;;;;1.15;0.57;;;11.60;99.90;;;;;;5096873;28;20460;-69
2021/12/03 14:52:23;;;;;;;1.95;0.60;;;11.70;99.90;;;;;;5096390;28;20036;-68
2021/12/03 14:54:54;;;;;;;0.77;0.35;;;11.70;99.90;;;;;;5094827;28;20099;-67
2021/12/03 15:35:09;;;;;;;9.07;0.80;;;11.90;99.90;;;;;;5095323;28;20040;-68
2021/12/03 15:38:05;;;;;;;1.13;0.50;;;11.90;99.90;;;;;;5095431;28;20036;-69
2021/12/03 15:41:35;;;;;;;;;;;11.80;99.90;;;;;;5095887;28;20062;-70
2021/12/03 16:04:55;;;;;;;2.78;1.02;;;11.60;99.90;;;;;;5073015;28;20165;-71
2021/12/03 16:12:48;;;;;;;7.22;2.10;;;11.70;99.90;;;;;;5093766;28;20028;-70
2021/12/03 16:15:41;;;;;;;3.22;1.63;;;11.70;99.90;;;;;;5092817;28;20122;-70
2021/12/03 16:21:00;;;;;;;2.80;1.35;;;11.80;99.90;;;;;;5094677;28;20020;-71
2021/12/03 16:26:30;;;;;;;3.92;1.40;;;11.90;99.90;;;;;;5051863;28;20477;-71
2021/12/03 16:45:54;;;;;;;5.95;0.98;;;11.60;99.90;;;;;;5052287;28;20398;-70
2021/12/03 16:53:31;;;;;;;2.10;0.88;;;11.40;99.90;;;;;;5051748;28;20025;-70
2021/12/03 16:56:07;;;;;;;1.60;0.50;;;11.40;99.90;;;;;;5051919;28;20030;-71
2021/12/03 16:58:35;;;;;;;0.90;0.50;;;11.20;99.90;;;;;;5051412;28;20118;-71
2021/12/03 17:01:08;;;;;;;5.10;0.70;;;11.20;99.90;;;;;;5051624;28;20456;-69
2021/12/03 17:12:01;;;;;;;1.10;0.60;;;11.20;99.90;;;;;;5071380;28;20086;-70
2021/12/03 18:00:10;;;;;;;1.48;0.60;;;10.80;99.90;;;;;;5092634;28;20070;-71
2021/12/03 18:02:41;;;;;;;2.13;0.70;;;10.80;99.90;;;;;;5091253;28;20032;-72
2021/12/03 18:07:48;;;;;;;0.68;0.45;;;10.80;99.90;;;;;;5092466;28;20050;-70
2021/12/03 18:10:33;;;;;;;2.63;0.60;;;10.90;99.90;;;;;;5092474;28;20035;-71
2021/12/03 18:16:01;;;;;;;0.95;0.50;;;11.00;99.90;;;;;;5092674;28;20116;-70
2021/12/03 18:18:43;;;;;;;2.05;0.57;;;11.00;99.90;;;;;;5094607;28;20062;-71
2021/12/03 18:51:28;;;;;;;6.10;1.55;;;10.70;99.90;;;;;;5096697;28;20034;-69
2021/12/03 18:56:47;;;;;;;3.60;1.20;;;10.80;99.90;;;;;;5073387;28;20028;-70
2021/12/03 18:59:14;;;;;;;4.63;1.30;;;10.80;99.90;;;;;;5095290;28;20043;-70
2021/12/03 19:01:41;;;;;;;2.55;1.27;;;10.90;99.90;;;;;;5096737;28;20020;-70
2021/12/03 19:04:16;;;;;;;2.75;1.50;;;10.80;99.90;;;;;;5094923;28;20036;-70
2021/12/03 19:07:04;;;;;;;5.22;2.00;;;10.80;99.90;;;;;;5096577;28;20055;-70
2021/12/03 19:09:36;;;;;;;5.05;1.90;;;10.80;99.90;;;;;;5096339;28;20024;-71
2021/12/03 19:12:10;;;;;;;4.55;2.20;;;10.80;99.90;;;;;;5095062;28;20050;-71
2021/12/03 19:14:43;;;;;;;4.57;1.50;;;10.80;99.90;;;;;;5095243;28;20029;-70
2021/12/03 19:17:09;;;;;;;7.03;1.55;;;10.80;99.90;;;;;;5094963;28;20020;-70
2021/12/03 19:19:43;;;;;;;13.20;2.88;;;10.70;99.90;;;;;;5096971;28;20031;-70
2021/12/03 19:22:09;;;;;;;4.85;1.45;;;10.80;99.90;;;;;;5096397;28;20027;-70
2021/12/03 19:24:35;;;;;;;7.38;2.20;;;10.80;99.90;;;;;;5094759;28;20376;-70
2021/12/03 19:27:02;;;;;;;5.80;2.10;;;10.80;99.90;;;;;;5095866;28;20043;-71
2021/12/03 19:29:32;;;;;;;7.95;2.08;;;10.80;99.90;;;;;;5094357;28;20020;-70
2021/12/03 19:31:58;;;;;;;9.63;1.80;;;10.80;99.90;;;;;;5094432;28;20043;-71
2021/12/03 19:34:24;;;;;;;9.70;2.50;;;10.80;99.90;;;;;;5094394;28;20484;-70
2021/12/03 19:36:52;;;;;;;7.70;2.03;;;10.80;99.90;;;;;;5094524;28;20036;-69
2021/12/03 19:39:20;;;;;;;12.60;2.10;;;10.90;99.90;;;;;;5095788;28;20016;-71
2021/12/03 19:44:18;;;;;;;12.23;2.22;;;10.90;99.90;;;;;;5095512;28;20031;-70
2021/12/03 19:46:48;;;;;;;6.88;1.67;;;10.90;99.90;;;;;;5094368;28;20032;-70
2021/12/03 19:51:53;;;;;;;5.68;2.00;;;10.90;99.90;;;;;;5095558;28;20028;-71
2021/12/03 19:54:21;;;;;;;11.02;2.30;;;11.00;99.90;;;;;;5095753;28;20354;-71
2021/12/03 19:56:47;;;;;;;7.13;2.08;;;11.00;99.90;;;;;;5095359;28;20051;-70
2021/12/03 19:59:15;;;;;;;14.10;4.15;;;10.90;99.90;;;;;;5096019;28;20081;-70
2021/12/03 20:01:43;;;;;;;14.18;2.45;;;10.90;99.90;;;;;;5094234;28;20024;-69